Time;durP1;ratioP1;P1;durP2;ratioP2;P2;SDS_P1;SDS_P2;PMS_P1;PMS_P2;Temp;Humidity;BMP_temperature;BMP_pressure;BME280_temperature;BME280_humidity;BME280_pressure;Samples;Min_cycle;Max_cycle;Signal;HPM_P1;HPM_P2
2022/01/12 00:02:06;;;;;;;10.38;4.50;;;;;;;3.52;89.28;103699.97;4994755;28;97288;-41
2022/01/12 00:04:32;;;;;;;12.43;5.28;;;;;;;3.55;89.82;103710.78;4993397;28;112787;-41
2022/01/12 00:06:57;;;;;;;17.55;4.57;;;;;;;3.37;89.79;103687.28;4994315;28;102396;-40
2022/01/12 00:09:22;;;;;;;8.93;3.53;;;;;;;3.44;89.99;103698.09;4993995;28;97899;-40
2022/01/12 00:11:49;;;;;;;5.97;3.15;;;;;;;3.55;89.44;103717.88;4994358;28;97765;-41
2022/01/12 00:14:14;;;;;;;10.27;4.10;;;;;;;3.47;89.63;103703.50;4994596;28;96477;-41
2022/01/12 00:16:40;;;;;;;12.00;4.82;;;;;;;3.55;89.49;103720.56;4994054;28;96827;-41
2022/01/12 00:19:06;;;;;;;11.32;5.43;;;;;;;3.34;89.01;103689.91;4993859;28;98070;-41
2022/01/12 00:21:31;;;;;;;14.65;5.72;;;;;;;3.46;88.90;103701.69;4993471;28;115276;-40
2022/01/12 00:23:56;;;;;;;8.15;3.55;;;;;;;3.56;89.30;103731.31;4994384;28;96541;-41
2022/01/12 00:34:24;;;;;;;18.02;6.20;;;;;;;3.51;90.15;103682.13;4993847;28;96465;-41
2022/01/12 00:36:49;;;;;;;7.28;3.55;;;;;;;3.50;89.67;103680.28;4994037;28;96820;-41
2022/01/12 00:39:15;;;;;;;8.73;4.82;;;;;;;3.34;90.21;103656.88;4991825;28;124737;-41
2022/01/12 00:41:41;;;;;;;7.03;2.92;;;;;;;3.55;90.70;103694.69;4992951;28;126518;-41
2022/01/12 00:44:09;;;;;;;6.28;3.53;;;;;;;3.44;90.34;103674.88;4992438;28;96915;-41
2022/01/12 00:46:38;;;;;;;6.55;2.22;;;;;;;3.49;90.23;103677.63;4992335;28;96718;-41
2022/01/12 00:49:03;;;;;;;10.07;4.00;;;;;;;3.51;89.90;103690.16;4992108;28;101895;-40
2022/01/12 00:51:34;;;;;;;9.20;4.07;;;;;;;3.64;89.95;103715.34;4994191;28;97935;-41
2022/01/12 00:54:01;;;;;;;8.80;4.25;;;;;;;3.51;90.37;103694.63;4992283;28;96715;-41
2022/01/12 00:56:27;;;;;;;8.02;3.78;;;;;;;3.66;89.66;103729.66;4992109;28;97160;-40
2022/01/12 00:58:53;;;;;;;5.07;3.50;;;;;;;3.61;89.78;103726.03;4991648;28;101309;-41
2022/01/12 01:01:20;;;;;;;7.22;4.80;;;;;;;3.61;89.56;103720.66;4991861;28;113076;-41
2022/01/12 01:03:49;;;;;;;8.38;3.67;;;;;;;3.54;90.04;103702.69;4993654;28;96646;-41
2022/01/12 01:06:15;;;;;;;7.47;4.82;;;;;;;3.66;89.59;103721.63;4992227;28;96586;-41
2022/01/12 01:08:40;;;;;;;9.52;4.45;;;;;;;3.64;89.94;103718.00;4993419;28;97925;-41
2022/01/12 01:11:06;;;;;;;8.95;4.65;;;;;;;3.58;90.28;103693.81;4993487;28;97886;-41
2022/01/12 01:13:42;;;;;;;7.40;3.92;;;;;;;3.53;89.70;103680.38;4993265;28;96466;-41
2022/01/12 01:16:19;;;;;;;6.45;3.22;;;;;;;3.60;90.79;103694.75;4992324;28;96761;-40
2022/01/12 01:26:58;;;;;;;11.43;6.75;;;;;;;3.58;90.60;103683.09;4993734;28;96672;-40
2022/01/12 01:29:23;;;;;;;8.35;3.72;;;;;;;3.55;90.31;103692.00;4993142;28;97076;-41
2022/01/12 01:31:49;;;;;;;6.38;3.53;;;;;;;3.46;90.33;103667.75;4993004;28;97706;-40
2022/01/12 01:34:15;;;;;;;7.57;4.43;;;;;;;3.54;90.57;103670.53;4992698;28;96724;-40
2022/01/12 01:36:52;;;;;;;7.20;4.72;;;;;;;3.60;90.37;103684.03;4991557;28;97205;-41
2022/01/12 01:39:24;;;;;;;6.15;3.30;;;;;;;3.59;90.10;103693.81;4991544;28;100894;-41
2022/01/12 01:41:54;;;;;;;8.85;4.15;;;;;;;3.61;90.25;103709.94;4991801;28;100603;-40
2022/01/12 01:55:12;;;;;;;16.70;5.13;;;;;;;3.60;90.17;103751.03;4993297;28;97034;-41
2022/01/12 01:57:38;;;;;;;5.20;3.72;;;;;;;3.60;90.71;103751.03;4991097;28;96864;-41
2022/01/12 02:00:18;;;;;;;7.88;4.57;;;;;;;3.66;90.56;103760.94;4992539;28;97456;-40
2022/01/12 02:02:45;;;;;;;7.13;3.60;;;;;;;3.66;90.11;103759.16;4992427;28;99745;-40
2022/01/12 02:05:11;;;;;;;13.88;7.20;;;;;;;3.60;89.92;103748.34;4992772;28;97087;-40
2022/01/12 02:07:36;;;;;;;6.20;3.80;;;;;;;3.64;90.31;103765.38;4991523;28;96765;-41
2022/01/12 02:10:03;;;;;;;10.23;4.40;;;;;;;3.51;90.10;103746.44;4992284;28;112653;-40
2022/01/12 02:12:29;;;;;;;12.38;5.22;;;;;;;3.44;90.15;103747.22;4990837;28;102191;-41
2022/01/12 02:14:56;;;;;;;7.32;4.32;;;;;;;3.53;90.62;103759.88;4990621;28;97090;-40
2022/01/12 02:17:27;;;;;;;8.52;5.80;;;;;;;3.56;90.18;103763.47;4991053;28;96897;-41
2022/01/12 02:36:20;;;;;;;14.02;3.75;;;;;;;3.65;90.19;103804.69;4992779;28;96555;-40
2022/01/12 02:41:31;;;;;;;6.97;3.90;;;;;;;3.77;90.03;103835.28;4991945;28;97059;-41
2022/01/12 02:54:43;;;;;;;12.45;5.28;;;;;;;3.77;89.86;103820.97;4991602;28;98181;-41
2022/01/12 02:57:09;;;;;;;12.57;5.25;;;;;;;3.80;89.68;103829.94;4991536;28;96553;-41
2022/01/12 02:59:35;;;;;;;9.20;4.40;;;;;;;3.85;89.74;103837.16;4992460;28;96764;-40
2022/01/12 03:02:25;;;;;;;12.55;5.18;;;;;;;3.79;89.38;103822.78;4992115;28;97954;-40
2022/01/12 03:05:46;;;;;;;9.23;4.93;;;;;;;3.75;89.89;103803.97;4995409;28;99350;-41
2022/01/12 03:07:39;;;;;;;6.47;3.85;;;;;;;3.74;90.16;103803.06;4996842;28;96869;-41
2022/01/12 03:10:05;;;;;;;6.82;3.28;;;;;;;3.80;90.25;103813.84;4995286;28;96808;-41
2022/01/12 03:12:30;;;;;;;8.30;3.08;;;;;;;3.72;89.96;103803.88;4993757;28;102069;-40
2022/01/12 03:14:55;;;;;;;7.07;4.25;;;;;;;3.84;89.58;103814.81;4995169;28;97629;-41
2022/01/12 03:17:21;;;;;;;7.85;4.63;;;;;;;3.78;89.99;103801.31;4994418;28;119705;-41
2022/01/12 03:19:46;;;;;;;7.53;3.95;;;;;;;3.83;90.62;103797.81;4995341;28;96796;-41
2022/01/12 03:22:13;;;;;;;14.07;4.60;;;;;;;3.59;91.37;103755.47;4995202;28;97883;-40
2022/01/12 03:24:38;;;;;;;7.30;4.43;;;;;;;3.82;91.21;103803.16;4993824;28;99113;-40
2022/01/12 03:27:06;;;;;;;9.20;5.15;;;;;;;3.86;91.26;103807.66;4995445;28;96649;-41
2022/01/12 03:29:31;;;;;;;10.63;4.65;;;;;;;3.84;90.94;103806.78;4993709;28;96755;-41
2022/01/12 03:31:57;;;;;;;11.02;4.88;;;;;;;3.76;90.71;103809.31;4993265;28;120258;-41
2022/01/12 03:34:30;;;;;;;10.63;5.15;;;;;;;3.75;90.52;103803.97;4993487;28;100907;-40
2022/01/12 03:39:39;;;;;;;8.05;3.80;;;;;;;3.88;90.60;103830.03;4995319;28;96604;-41
2022/01/12 03:42:05;;;;;;;14.15;5.28;;;;;;;3.90;90.95;103838.13;4994775;28;97444;-40
2022/01/12 03:44:30;;;;;;;5.75;3.53;;;;;;;3.79;91.44;103824.53;4994829;28;97758;-41
2022/01/12 03:46:55;;;;;;;7.72;4.07;;;;;;;3.75;90.50;103818.25;4993345;28;96610;-40
2022/01/12 03:49:21;;;;;;;10.82;6.20;;;;;;;3.80;90.36;103823.69;4994289;28;121238;-40
2022/01/12 03:51:47;;;;;;;9.35;3.63;;;;;;;3.78;90.56;103823.66;4994746;28;97903;-41
2022/01/12 03:54:13;;;;;;;8.60;4.32;;;;;;;3.80;90.24;103831.72;4994472;28;97417;-41
2022/01/12 03:56:38;;;;;;;8.05;4.32;;;;;;;3.82;90.36;103832.66;4993887;28;96812;-41
2022/01/12 03:59:04;;;;;;;7.60;4.88;;;;;;;3.80;90.24;103826.38;4994640;28;96746;-41
2022/01/12 04:01:30;;;;;;;7.72;3.83;;;;;;;3.83;89.89;103824.63;4993040;28;101081;-41
2022/01/12 04:04:04;;;;;;;15.98;4.18;;;;;;;3.85;90.45;103837.16;4992907;28;100921;-41
2022/01/12 04:09:15;;;;;;;10.20;4.43;;;;;;;3.98;89.96;103855.22;4995080;28;96467;-41
2022/01/12 04:11:40;;;;;;;7.60;4.20;;;;;;;3.85;90.00;103823.75;4994412;28;97960;-41
2022/01/12 04:14:07;;;;;;;7.13;4.28;;;;;;;3.82;90.07;103812.09;4994279;28;97839;-41
2022/01/12 04:16:32;;;;;;;11.43;4.75;;;;;;;3.88;90.12;103823.78;4992723;28;96732;-41
2022/01/12 04:18:58;;;;;;;8.73;4.35;;;;;;;3.89;89.73;103820.25;4993337;28;117546;-41
2022/01/12 04:21:28;;;;;;;8.70;4.40;;;;;;;4.03;90.02;103832.97;4993727;28;97953;-41
2022/01/12 04:23:54;;;;;;;17.77;5.20;;;;;;;4.01;90.68;103831.16;4994067;28;97787;-41
2022/01/12 04:26:19;;;;;;;7.13;3.83;;;;;;;4.03;90.23;103832.06;4992627;28;96845;-41
2022/01/12 04:28:46;;;;;;;17.55;5.78;;;;;;;3.96;89.82;103827.50;4994276;28;96769;-41
2022/01/12 04:31:12;;;;;;;13.45;5.18;;;;;;;3.94;90.70;103831.94;4992369;28;100648;-41
2022/01/12 04:33:40;;;;;;;10.27;3.90;;;;;;;3.92;90.17;103831.91;4992137;28;101264;-41
2022/01/12 04:36:06;;;;;;;7.90;3.40;;;;;;;3.94;90.22;103842.66;4992849;28;96606;-41
2022/01/12 04:38:36;;;;;;;12.55;5.60;;;;;;;3.92;90.77;103841.75;4992796;28;96815;-40
2022/01/12 04:41:04;;;;;;;12.93;5.78;;;;;;;3.93;90.68;103852.50;4993619;28;99852;-41
2022/01/12 04:43:30;;;;;;;20.58;5.32;;;;;;;3.95;90.55;103849.81;4992288;28;102334;-41
2022/01/12 04:50:53;;;;;;;9.80;4.40;;;;;;;3.98;90.39;103840.06;4993793;28;97719;-41
2022/01/12 04:53:19;;;;;;;14.32;5.22;;;;;;;4.05;90.32;103857.09;4992237;28;101360;-40
2022/01/12 04:55:46;;;;;;;9.90;5.43;;;;;;;4.12;90.85;103853.63;4992183;28;96594;-41
2022/01/12 04:58:11;;;;;;;13.23;4.68;;;;;;;4.01;90.61;103831.16;4992003;28;96930;-41
2022/01/12 05:00:39;;;;;;;12.85;5.82;;;;;;;4.10;90.70;103844.69;4993642;28;97811;-40
2022/01/12 05:13:50;;;;;;;10.90;4.78;;;;;;;4.00;90.43;103827.56;4993836;28;97046;-41
2022/01/12 05:16:16;;;;;;;9.18;4.70;;;;;;;4.02;90.63;103831.16;4992120;28;96578;-41
2022/01/12 05:18:43;;;;;;;8.98;3.67;;;;;;;4.03;90.30;103842.81;4991948;28;96907;-41
2022/01/12 05:21:10;;;;;;;21.58;4.30;;;;;;;4.03;90.59;103848.16;4992207;28;97443;-40
2022/01/12 05:23:36;;;;;;;10.77;4.25;;;;;;;4.09;90.72;103858.97;4991759;28;99011;-41
2022/01/12 05:26:02;;;;;;;15.02;4.95;;;;;;;3.99;90.27;103855.25;4991002;28;96566;-41
2022/01/12 05:28:29;;;;;;;12.75;4.88;;;;;;;4.04;90.40;103866.94;4992257;28;96826;-41
2022/01/12 05:30:55;;;;;;;8.57;4.95;;;;;;;4.08;89.98;103888.47;4991621;28;100916;-41
2022/01/12 05:33:23;;;;;;;6.07;3.10;;;;;;;4.07;90.31;103894.69;4990898;28;100880;-40
2022/01/12 05:35:50;;;;;;;8.68;4.20;;;;;;;4.00;90.43;103883.88;4991175;28;96817;-40
2022/01/12 05:38:15;;;;;;;9.23;5.25;;;;;;;4.00;90.14;103888.31;4993131;28;96840;-41
2022/01/12 05:40:45;;;;;;;11.73;5.30;;;;;;;3.93;89.74;103878.38;4992768;28;99897;-41
2022/01/12 05:43:10;;;;;;;7.88;4.38;;;;;;;3.89;90.34;103873.88;4991320;28;100905;-41
2022/01/12 05:45:39;;;;;;;10.43;4.85;;;;;;;3.90;89.92;103878.34;4992816;28;96658;-41
2022/01/12 05:50:38;;;;;;;16.45;4.63;;;;;;;3.98;90.50;103896.38;4990115;28;97454;-40
2022/01/12 05:53:04;;;;;;;7.18;4.00;;;;;;;3.95;90.09;103898.97;4991755;28;100743;-41
2022/01/12 05:55:29;;;;;;;10.57;4.90;;;;;;;3.93;90.15;103891.78;4992649;28;96480;-41
2022/01/12 05:57:55;;;;;;;6.43;3.40;;;;;;;3.89;90.73;103892.66;4992520;28;96698;-41
2022/01/12 06:00:22;;;;;;;9.77;4.65;;;;;;;3.89;90.51;103906.06;4991886;28;107928;-41
2022/01/12 06:02:48;;;;;;;11.68;5.15;;;;;;;3.82;90.33;103897.91;4992497;28;97100;-40
2022/01/12 06:05:14;;;;;;;9.63;4.75;;;;;;;3.73;90.50;103887.03;4992709;28;96541;-40
2022/01/12 06:07:41;;;;;;;12.77;3.88;;;;;;;3.83;90.56;103907.72;4991196;28;96885;-40
2022/01/12 06:10:07;;;;;;;9.35;4.72;;;;;;;3.77;90.68;103894.25;4992358;28;99241;-41
2022/01/12 06:12:32;;;;;;;14.57;4.03;;;;;;;3.75;90.16;103901.38;4992766;28;97294;-41
2022/01/12 06:14:57;;;;;;;12.48;4.97;;;;;;;3.68;90.84;103885.16;4992392;28;104391;-40
2022/01/12 06:17:23;;;;;;;7.30;4.32;;;;;;;3.75;90.12;103912.09;4991747;28;118585;-41
2022/01/12 06:19:48;;;;;;;8.98;4.22;;;;;;;3.78;90.55;103922.84;4991390;28;125912;-40
2022/01/12 06:22:13;;;;;;;10.93;4.50;;;;;;;3.73;90.37;103921.88;4992221;28;99192;-41
2022/01/12 06:24:39;;;;;;;5.82;2.83;;;;;;;3.79;90.52;103946.13;4992334;28;96467;-40
2022/01/12 06:27:05;;;;;;;7.93;4.18;;;;;;;3.60;90.17;103920.78;4991844;28;116358;-41
2022/01/12 06:31:10;;;;;;;20.52;3.90;;;;;;;3.71;90.19;103942.38;4990663;28;101274;-41
2022/01/12 06:32:19;;;;;;;7.93;4.28;;;;;;;3.75;90.35;103941.56;4993202;28;97115;-40
2022/01/12 06:34:45;;;;;;;7.78;3.63;;;;;;;3.77;90.20;103946.97;4992528;28;96493;-41
2022/01/12 06:37:11;;;;;;;8.20;4.28;;;;;;;3.74;90.65;103947.81;4992056;28;96848;-41
2022/01/12 06:39:36;;;;;;;5.35;3.10;;;;;;;3.75;90.18;103954.97;4991994;28;97966;-41
2022/01/12 06:42:02;;;;;;;7.90;4.70;;;;;;;3.64;90.82;103945.84;4992446;28;97635;-40
2022/01/12 06:44:27;;;;;;;8.40;3.25;;;;;;;3.64;90.51;103945.84;4992026;28;96509;-40
2022/01/12 06:46:53;;;;;;;9.63;4.03;;;;;;;3.73;90.71;103955.84;4992083;28;96884;-40
2022/01/12 06:49:19;;;;;;;14.20;4.88;;;;;;;3.62;90.52;103942.22;4991224;28;99234;-41
2022/01/12 06:51:46;;;;;;;10.75;5.43;;;;;;;3.64;90.44;103945.84;4991896;28;97505;-41
2022/01/12 06:54:12;;;;;;;6.88;4.13;;;;;;;3.61;90.25;103951.16;4990353;28;96656;-41
2022/01/12 06:56:37;;;;;;;7.90;3.72;;;;;;;3.61;90.46;103949.38;4990225;28;98386;-40
2022/01/12 06:59:04;;;;;;;7.68;4.47;;;;;;;3.62;90.88;103944.91;4991853;28;98011;-41
2022/01/12 07:01:29;;;;;;;10.30;4.18;;;;;;;3.62;90.61;103955.63;4990388;28;101366;-41
2022/01/12 07:03:55;;;;;;;6.65;2.90;;;;;;;3.59;90.77;103959.16;4990383;28;96566;-41
2022/01/12 07:06:21;;;;;;;9.05;4.45;;;;;;;3.58;90.41;103962.72;4992243;28;96749;-41
2022/01/12 07:08:46;;;;;;;6.97;3.38;;;;;;;3.51;90.44;103959.91;4990233;28;100941;-40
2022/01/12 07:11:12;;;;;;;9.38;4.43;;;;;;;3.68;90.65;103995.06;4991903;28;97770;-41
2022/01/12 07:13:37;;;;;;;6.22;3.75;;;;;;;3.55;90.45;103977.84;4991044;28;107810;-41
2022/01/12 07:16:03;;;;;;;5.80;3.10;;;;;;;3.53;90.67;103974.25;4991757;28;96882;-40
2022/01/12 07:18:29;;;;;;;7.10;3.78;;;;;;;3.55;90.64;103984.13;4991279;28;99220;-40
2022/01/12 07:20:56;;;;;;;12.50;4.55;;;;;;;3.67;90.71;104012.94;4990295;28;100589;-40
2022/01/12 07:23:21;;;;;;;6.75;3.10;;;;;;;3.65;90.75;104014.69;4990405;28;96531;-41
2022/01/12 07:25:47;;;;;;;5.10;3.58;;;;;;;3.64;90.69;104012.84;4990285;28;96769;-40
2022/01/12 07:28:12;;;;;;;7.60;4.32;;;;;;;3.67;90.47;104017.38;4989857;28;99898;-41
2022/01/12 07:30:37;;;;;;;9.90;4.43;;;;;;;3.55;90.76;103992.16;4992240;28;97742;-41
2022/01/12 07:33:03;;;;;;;9.73;3.67;;;;;;;3.65;90.72;104006.63;4991424;28;96494;-41
2022/01/12 07:35:28;;;;;;;6.68;3.35;;;;;;;3.65;90.59;104020.03;4990671;28;122096;-40
2022/01/12 07:37:53;;;;;;;10.45;2.97;;;;;;;3.56;90.70;103998.41;4990992;28;98388;-41
2022/01/12 07:40:19;;;;;;;6.25;3.22;;;;;;;3.65;90.89;104012.00;4991152;28;106123;-40
2022/01/12 07:42:45;;;;;;;8.13;3.42;;;;;;;3.60;90.35;104011.91;4986095;28;96708;-41
2022/01/12 07:45:10;;;;;;;10.00;4.80;;;;;;;3.69;90.71;104023.66;4991375;28;96902;-40
2022/01/12 07:47:36;;;;;;;7.53;4.55;;;;;;;3.69;90.90;104032.59;4991299;28;97774;-40
2022/01/12 07:50:05;;;;;;;12.07;4.15;;;;;;;3.54;90.92;104006.41;4994577;28;97176;-40
2022/01/12 07:52:30;;;;;;;11.68;4.50;;;;;;;3.62;90.58;104019.94;4994695;28;96570;-40
2022/01/12 07:54:57;;;;;;;12.43;5.82;;;;;;;3.69;90.37;104035.28;4993630;28;96951;-41
2022/01/12 07:57:22;;;;;;;12.05;4.15;;;;;;;3.59;90.33;104017.22;4993638;28;99011;-41
2022/01/12 07:59:47;;;;;;;11.90;5.35;;;;;;;3.71;90.57;104041.56;4994258;28;99316;-40
2022/01/12 08:02:13;;;;;;;10.95;5.97;;;;;;;3.50;90.43;104004.53;4994102;28;96458;-40
2022/01/12 08:04:39;;;;;;;19.02;6.00;;;;;;;3.74;90.62;104048.78;4994603;28;96807;-41
2022/01/12 08:07:04;;;;;;;5.53;3.08;;;;;;;3.76;90.53;104047.03;4993797;28;117219;-40
2022/01/12 08:09:30;;;;;;;5.88;3.45;;;;;;;3.74;90.68;104054.13;4994182;28;99394;-40
2022/01/12 08:11:56;;;;;;;3.90;2.83;;;;;;;3.66;90.78;104051.31;4994441;28;96421;-41
2022/01/12 08:14:21;;;;;;;4.25;2.60;;;;;;;3.74;91.17;104076.50;4994373;28;96850;-40
2022/01/12 08:16:47;;;;;;;6.78;2.67;;;;;;;3.64;90.91;104060.19;4992734;28;99111;-41
2022/01/12 08:19:16;;;;;;;4.65;2.10;;;;;;;3.82;90.97;104090.06;4993801;28;116170;-40
2022/01/12 08:21:42;;;;;;;6.90;3.15;;;;;;;3.82;90.63;104088.25;4992938;28;97090;-41
2022/01/12 08:24:07;;;;;;;7.00;2.58;;;;;;;3.72;90.36;104078.25;4993470;28;115796;-41
2022/01/12 08:26:32;;;;;;;3.00;1.52;;;;;;;3.84;90.49;104088.31;4993798;28;97388;-41
2022/01/12 08:28:58;;;;;;;10.93;2.90;;;;;;;3.66;90.86;104050.41;4994072;28;97834;-40
2022/01/12 08:31:23;;;;;;;5.15;2.08;;;;;;;3.80;91.04;104086.44;4993780;28;106943;-41
2022/01/12 08:33:49;;;;;;;6.90;3.17;;;;;;;3.75;91.27;104086.34;4993766;28;96731;-41
2022/01/12 08:36:15;;;;;;;7.30;2.92;;;;;;;3.74;90.78;104072.91;4993978;28;97867;-40
2022/01/12 08:38:41;;;;;;;5.22;3.03;;;;;;;3.88;90.85;104099.97;4992351;28;101059;-41
2022/01/12 08:41:06;;;;;;;7.20;2.92;;;;;;;3.66;90.66;104059.34;4993844;28;96698;-41
2022/01/12 08:43:32;;;;;;;9.20;4.18;;;;;;;3.88;91.00;104097.28;4994513;28;96747;-41
2022/01/12 08:45:57;;;;;;;8.82;3.83;;;;;;;3.83;91.30;104091.84;4993758;28;96874;-40
2022/01/12 08:48:23;;;;;;;5.25;2.30;;;;;;;3.74;91.04;104083.63;4993812;28;97748;-41
2022/01/12 08:50:49;;;;;;;13.05;4.18;;;;;;;3.82;91.23;104106.13;4991844;28;96933;-40
2022/01/12 08:53:14;;;;;;;11.02;4.45;;;;;;;3.82;91.21;104112.41;4993777;28;96812;-40
2022/01/12 08:55:40;;;;;;;10.02;5.07;;;;;;;3.88;91.54;104122.31;4993074;28;99179;-41
2022/01/12 08:58:06;;;;;;;7.63;4.70;;;;;;;3.67;91.94;104081.69;4993158;28;99254;-40
2022/01/12 09:00:31;;;;;;;9.65;4.45;;;;;;;3.91;91.83;104130.47;4992656;28;96443;-40
2022/01/12 09:02:57;;;;;;;9.25;3.20;;;;;;;3.92;91.14;104132.25;4993778;28;96711;-41
2022/01/12 09:05:22;;;;;;;6.65;3.45;;;;;;;3.95;91.48;104139.44;4992831;28;115608;-41
2022/01/12 09:07:47;;;;;;;7.88;3.65;;;;;;;3.91;91.45;104134.88;4993581;28;102974;-40
2022/01/12 09:10:13;;;;;;;4.47;2.70;;;;;;;4.00;91.51;104143.13;4993165;28;96555;-40
2022/01/12 09:12:39;;;;;;;7.88;3.47;;;;;;;4.02;91.76;104152.09;4993554;28;96864;-41
2022/01/12 09:15:09;;;;;;;9.38;4.45;;;;;;;3.89;91.62;104131.31;4992569;28;98974;-41
2022/01/12 09:17:35;;;;;;;5.75;3.03;;;;;;;4.02;91.41;104153.00;4991816;28;100439;-41
2022/01/12 09:20:01;;;;;;;4.65;2.58;;;;;;;4.12;91.05;104167.47;4993464;28;96436;-40
2022/01/12 09:22:27;;;;;;;5.13;3.25;;;;;;;4.02;91.56;104141.38;4992048;28;96793;-40
2022/01/12 09:24:53;;;;;;;6.47;3.88;;;;;;;4.16;91.45;104168.47;4992035;28;123692;-40
2022/01/12 09:27:19;;;;;;;9.07;4.05;;;;;;;4.13;91.60;104166.63;4991914;28;100564;-40
2022/01/12 09:29:45;;;;;;;6.05;2.80;;;;;;;4.15;91.39;104164.88;4991769;28;96563;-41
2022/01/12 09:32:11;;;;;;;10.35;2.63;;;;;;;4.08;91.66;104151.34;4991508;28;96801;-41
2022/01/12 09:34:36;;;;;;;9.05;4.15;;;;;;;4.20;91.11;104197.16;4991738;28;100791;-40
2022/01/12 09:37:02;;;;;;;6.75;3.10;;;;;;;4.19;91.18;104182.81;4993113;28;97933;-41
2022/01/12 09:39:28;;;;;;;10.73;3.70;;;;;;;4.25;91.30;104196.38;4990907;28;96868;-40
2022/01/12 09:41:53;;;;;;;6.63;3.05;;;;;;;4.26;91.00;104192.78;4992898;28;96779;-41
2022/01/12 09:44:19;;;;;;;6.20;3.10;;;;;;;4.14;90.76;104168.41;4992977;28;97856;-40
2022/01/12 09:46:44;;;;;;;9.52;4.60;;;;;;;4.09;91.07;104154.03;4993002;28;97759;-40
2022/01/12 09:49:11;;;;;;;7.63;3.97;;;;;;;4.22;91.17;104179.31;4993082;28;96558;-41
2022/01/12 09:51:36;;;;;;;10.90;3.90;;;;;;;4.22;91.43;104184.69;4991431;28;96848;-41
2022/01/12 09:54:02;;;;;;;8.95;3.25;;;;;;;4.22;91.81;104190.97;4992500;28;97579;-41
2022/01/12 09:56:31;;;;;;;4.90;1.73;;;;;;;4.20;92.12;104189.13;4992643;28;97258;-40
2022/01/12 09:58:59;;;;;;;7.57;3.25;;;;;;;4.28;92.11;104200.00;4991236;28;96525;-40
2022/01/12 10:01:36;;;;;;;5.35;2.05;;;;;;;4.29;91.54;104194.66;4991314;28;96603;-41
2022/01/12 10:04:17;;;;;;;10.68;2.20;;;;;;;4.37;91.38;104198.38;4991790;28;98001;-41
2022/01/12 10:06:52;;;;;;;5.05;2.40;;;;;;;4.39;91.76;104195.75;4992317;28;99184;-40
2022/01/12 10:09:44;;;;;;;6.95;2.45;;;;;;;4.42;91.05;104211.88;4992469;28;96691;-40
2022/01/12 10:12:15;;;;;;;4.43;1.65;;;;;;;4.33;91.43;104187.56;4985900;28;96767;-41
2022/01/12 10:14:52;;;;;;;4.65;2.28;;;;;;;4.50;91.02;104218.28;4990911;28;103403;-40
2022/01/12 10:17:19;;;;;;;7.03;1.88;;;;;;;4.42;91.23;104190.41;4990932;28;101231;-40
2022/01/12 10:19:44;;;;;;;3.47;1.52;;;;;;;4.47;91.89;104204.81;4991041;28;96553;-40
2022/01/12 10:22:14;;;;;;;6.38;2.95;;;;;;;4.36;91.52;104184.91;4993049;28;96844;-40
2022/01/12 10:24:45;;;;;;;5.47;2.22;;;;;;;4.51;92.09;104212.06;4991006;28;100825;-40
2022/01/12 10:27:18;;;;;;;3.85;1.58;;;;;;;4.54;91.54;104211.22;4990849;28;100940;-41
2022/01/12 10:29:45;;;;;;;3.97;1.25;;;;;;;4.47;91.43;104178.88;4992327;28;96620;-41
2022/01/12 10:32:12;;;;;;;3.17;1.58;;;;;;;4.52;91.58;104189.69;4990214;28;96880;-41
2022/01/12 10:34:44;;;;;;;5.22;2.55;;;;;;;4.59;91.19;104205.03;4991972;28;99330;-40
2022/01/12 10:37:12;;;;;;;4.25;1.98;;;;;;;4.52;91.45;104186.13;4990615;28;101485;-40
2022/01/12 10:39:48;;;;;;;5.22;2.38;;;;;;;4.58;91.42;104175.50;4990709;28;97221;-41
2022/01/12 10:42:18;;;;;;;6.22;1.83;;;;;;;4.64;91.34;104189.91;4990985;28;96775;-40
2022/01/12 10:44:46;;;;;;;2.55;1.63;;;;;;;4.64;91.20;104184.53;4990520;28;101087;-40
2022/01/12 10:47:16;;;;;;;6.53;1.90;;;;;;;4.61;91.42;104195.22;4990945;28;101012;-41
2022/01/12 10:49:53;;;;;;;2.88;1.88;;;;;;;4.63;91.32;104196.16;4990673;28;96657;-41
2022/01/12 10:52:19;;;;;;;6.28;1.17;;;;;;;4.64;91.21;104192.59;4991815;28;96868;-41
2022/01/12 10:54:55;;;;;;;4.97;1.65;;;;;;;4.66;91.10;104188.16;4991292;28;97493;-41
2022/01/12 10:57:24;;;;;;;3.80;1.70;;;;;;;4.53;91.12;104169.13;4990177;28;101030;-41
2022/01/12 11:00:04;;;;;;;4.38;2.53;;;;;;;4.67;91.39;104207.84;4991980;28;96558;-41
2022/01/12 11:02:30;;;;;;;6.78;1.92;;;;;;;4.49;91.54;104200.38;4991881;28;96804;-40
2022/01/12 11:04:57;;;;;;;6.65;2.38;;;;;;;4.71;91.58;104222.25;4990194;28;101136;-40
2022/01/12 11:07:32;;;;;;;9.18;1.75;;;;;;;4.61;91.28;104189.84;4991775;28;97964;-41
2022/01/12 11:10:00;;;;;;;7.03;2.42;;;;;;;4.70;91.25;104209.72;4990465;28;96699;-41
2022/01/12 11:12:26;;;;;;;8.43;3.00;;;;;;;4.66;91.31;104196.22;4990747;28;96749;-41
2022/01/12 11:14:52;;;;;;;4.78;2.22;;;;;;;4.62;91.30;104194.38;4990178;28;100837;-40
2022/01/12 11:17:18;;;;;;;5.93;2.47;;;;;;;4.76;91.28;104202.63;4990058;28;101120;-41
2022/01/12 11:20:07;;;;;;;8.85;3.28;;;;;;;4.82;91.50;104208.13;4991073;28;104299;-41
2022/01/12 11:23:00;;;;;;;10.52;3.17;;;;;;;4.87;90.98;104184.94;4990322;28;97158;-41
2022/01/12 11:25:28;;;;;;;4.28;2.95;;;;;;;4.91;90.94;104185.91;4993572;28;98908;-40
2022/01/12 11:28:09;;;;;;;4.43;1.90;;;;;;;4.88;91.43;104185.81;4994917;28;97359;-41
2022/01/12 11:30:35;;;;;;;5.75;2.20;;;;;;;4.77;91.40;104156.13;4995246;28;96482;-41
2022/01/12 11:33:04;;;;;;;9.98;2.28;;;;;;;4.75;91.32;104151.59;4993170;28;96846;-41
2022/01/12 11:35:36;;;;;;;3.75;2.25;;;;;;;4.76;91.33;104161.47;4993349;28;101150;-41
2022/01/12 11:38:03;;;;;;;12.13;2.85;;;;;;;4.89;91.56;104179.59;4995346;28;98393;-40
2022/01/12 11:40:35;;;;;;;6.28;2.55;;;;;;;4.94;91.49;104183.25;4993501;28;96506;-41
2022/01/12 11:43:01;;;;;;;3.40;1.75;;;;;;;4.83;91.93;104156.19;4994842;28;96857;-41
2022/01/12 11:45:26;;;;;;;3.83;2.25;;;;;;;4.84;91.89;104146.38;4994402;28;97911;-40
2022/01/12 11:47:52;;;;;;;7.22;3.25;;;;;;;4.88;91.95;104150.91;4994707;28;97866;-41
2022/01/12 11:50:17;;;;;;;5.78;2.00;;;;;;;4.84;92.17;104138.34;4994780;28;96461;-40
2022/01/12 11:52:43;;;;;;;4.88;2.95;;;;;;;4.88;91.84;104133.00;4994746;28;96985;-41
2022/01/12 11:55:14;;;;;;;5.57;2.50;;;;;;;4.90;91.63;104130.34;4994212;28;97068;-40
2022/01/12 11:57:42;;;;;;;5.40;3.05;;;;;;;4.93;92.03;104138.44;4976257;28;100875;-40
2022/01/12 12:00:27;;;;;;;13.40;3.28;;;;;;;5.08;91.81;104165.56;4993157;28;96555;-40
2022/01/12 12:02:53;;;;;;;8.45;2.50;;;;;;;5.08;91.03;104167.34;4994997;28;96721;-41
2022/01/12 12:05:26;;;;;;;7.00;3.00;;;;;;;5.05;91.48;104153.84;4994490;28;97816;-41
2022/01/12 12:08:04;;;;;;;6.03;2.63;;;;;;;5.16;91.08;104168.34;4993019;28;101379;-40
2022/01/12 12:10:40;;;;;;;5.30;2.50;;;;;;;5.09;91.56;104161.97;4993963;28;96470;-41
2022/01/12 12:13:06;;;;;;;8.32;3.20;;;;;;;5.04;91.90;104162.81;4994309;28;96662;-41
2022/01/12 12:15:32;;;;;;;5.28;2.55;;;;;;;5.05;91.33;104159.22;4992850;28;100854;-41
2022/01/12 12:18:00;;;;;;;7.93;3.00;;;;;;;5.00;91.67;104137.66;4994155;28;97826;-41
2022/01/12 12:20:26;;;;;;;8.45;3.28;;;;;;;4.88;91.39;104124.03;4993969;28;96733;-40
2022/01/12 12:22:52;;;;;;;14.63;3.42;;;;;;;5.07;91.89;104168.22;4994086;28;96780;-41
2022/01/12 12:25:24;;;;;;;8.25;3.83;;;;;;;4.99;91.64;104143.91;4992493;28;100436;-41
2022/01/12 12:27:58;;;;;;;9.82;3.00;;;;;;;5.14;91.62;104155.78;4992946;28;100783;-40
2022/01/12 12:30:26;;;;;;;9.82;2.85;;;;;;;5.05;92.02;104143.09;4992543;28;96828;-41
2022/01/12 12:32:55;;;;;;;5.85;2.85;;;;;;;5.03;91.61;104135.03;4992079;28;96941;-41
2022/01/12 12:35:24;;;;;;;6.47;2.67;;;;;;;5.02;92.59;104138.59;4991824;28;101047;-41
2022/01/12 12:38:19;;;;;;;4.18;2.05;;;;;;;5.08;92.49;104151.22;4993754;28;97997;-41
2022/01/12 12:40:47;;;;;;;7.88;2.63;;;;;;;5.02;92.73;104135.91;4991556;28;96524;-41
2022/01/12 12:43:20;;;;;;;4.90;2.15;;;;;;;5.02;92.60;104135.00;4994022;28;96752;-40
2022/01/12 12:45:59;;;;;;;11.32;2.40;;;;;;;5.00;92.75;104116.16;4994114;28;98523;-41
2022/01/12 12:48:28;;;;;;;6.00;2.63;;;;;;;5.08;92.30;104110.94;4993795;28;99366;-40
2022/01/12 12:51:00;;;;;;;3.47;2.17;;;;;;;5.10;92.43;104102.00;4992452;28;96617;-41
2022/01/12 12:53:30;;;;;;;;;;;;;;;5.25;92.60;104144.31;4994379;28;96782;-41